Chapman, Illinois
Current Conditions -  °F | °C
As of 12:55 AM on Friday 28 Nov 2014 (Local Time) from K3LF Reporting Station
Clear Clear  
Wind Chill: 10°   Ceiling: Unl
Heat Index: 19°   Visibility: 10mi
Dew Point: 13°   Wind: 7mph
Humidity: 76%   Direction: 120°ESE
Pressure: 30.4"   Gusts: NA
Location:  39.1009°N, 89.3067°W
Report Text: K3LF 280655Z AUTO 12006KT 10SM CLR M07/M11 A3040 RMK AO2 T10721107
Loading
Personal Weather Stations






























Interactive Weather Map New forecast layout! Learn more

10-Day Weather Forecast

Advertisements
Track Severe Weather on mobile